createdAt,value
2023-04-28T00:01:00.197Z,5.25
2023-04-28T00:03:28.207Z,3.83
2023-04-28T00:05:55.282Z,4.47
2023-04-28T00:08:23.488Z,4.80
2023-04-28T00:10:49.929Z,4.72
2023-04-28T00:13:16.451Z,4.15
2023-04-28T00:15:43.000Z,6.78
2023-04-28T00:18:09.441Z,4.43
2023-04-28T00:20:36.207Z,6.40
2023-04-28T00:23:02.714Z,5.38
2023-04-28T00:25:29.094Z,4.18
2023-04-28T00:27:55.732Z,6.13
2023-04-28T00:30:22.268Z,3.30
2023-04-28T00:32:48.738Z,3.92
2023-04-28T00:35:15.449Z,3.85
2023-04-28T00:37:42.044Z,4.80
2023-04-28T00:40:09.192Z,7.53
2023-04-28T00:42:35.977Z,3.50
2023-04-28T00:45:05.953Z,4.38
2023-04-28T00:47:36.982Z,7.15
2023-04-28T00:50:06.647Z,4.63
2023-04-28T00:52:33.152Z,4.05
2023-04-28T00:54:59.725Z,3.40
2023-04-28T00:57:26.276Z,4.82
2023-04-28T00:59:53.022Z,5.72
2023-04-28T01:02:20.090Z,3.58
2023-04-28T01:04:47.393Z,3.90
2023-04-28T01:07:13.857Z,4.30
2023-04-28T01:09:40.294Z,4.60
2023-04-28T01:12:06.994Z,3.33
2023-04-28T01:14:34.215Z,3.15
2023-04-28T01:17:00.885Z,3.20
2023-04-28T01:19:28.139Z,4.53
2023-04-28T01:21:54.556Z,3.42
2023-04-28T01:24:21.066Z,3.53
2023-04-28T01:26:47.612Z,3.70
2023-04-28T01:29:14.036Z,4.15
2023-04-28T01:31:41.223Z,5.20
2023-04-28T01:34:08.012Z,6.55
2023-04-28T01:36:37.286Z,7.25
2023-04-28T01:39:04.518Z,3.17
2023-04-28T01:41:31.101Z,3.42
2023-04-28T01:43:57.545Z,5.07
2023-04-28T01:46:24.119Z,3.55
2023-04-28T01:48:50.660Z,4.93
2023-04-28T01:51:17.153Z,4.18
2023-04-28T01:53:43.601Z,4.82
2023-04-28T01:56:10.042Z,4.33
2023-04-28T01:58:36.436Z,4.05
2023-04-28T02:01:02.957Z,5.60
2023-04-28T02:03:29.605Z,4.10
2023-04-28T02:05:56.271Z,4.85
2023-04-28T02:08:22.704Z,5.10
2023-04-28T02:10:49.170Z,6.57
2023-04-28T02:13:17.185Z,3.75
2023-04-28T02:15:44.373Z,3.53
2023-04-28T02:18:11.066Z,4.75
2023-04-28T02:20:37.481Z,4.70
2023-04-28T02:23:03.936Z,4.55
2023-04-28T02:25:30.379Z,6.60
2023-04-28T02:27:57.352Z,2.85
2023-04-28T02:30:23.794Z,2.85
2023-04-28T02:32:50.265Z,4.13
2023-04-28T02:35:16.857Z,5.45
2023-04-28T02:37:43.280Z,3.60
2023-04-28T02:40:09.992Z,3.33
2023-04-28T02:42:36.358Z,3.78
2023-04-28T02:45:02.911Z,3.63
2023-04-28T02:47:29.382Z,2.30
2023-04-28T02:49:55.799Z,3.25
2023-04-28T02:52:22.155Z,3.90
2023-04-28T02:54:49.162Z,5.03
2023-04-28T02:57:15.864Z,3.70
2023-04-28T02:59:42.597Z,4.07
2023-04-28T03:02:09.818Z,5.80
2023-04-28T03:04:36.410Z,3.80
2023-04-28T03:07:02.972Z,4.65
2023-04-28T03:09:29.397Z,2.97
2023-04-28T03:11:55.898Z,5.97
2023-04-28T03:14:22.359Z,3.90
2023-04-28T03:16:48.889Z,4.03
2023-04-28T03:19:15.309Z,5.75
2023-04-28T03:21:41.683Z,5.57
2023-04-28T03:24:08.222Z,8.27
2023-04-28T03:26:34.970Z,8.85
2023-04-28T03:29:01.354Z,5.43
2023-04-28T03:31:27.863Z,3.85
2023-04-28T03:33:54.882Z,4.27
2023-04-28T03:36:21.442Z,8.10
2023-04-28T03:38:47.844Z,6.55
2023-04-28T03:41:14.352Z,5.63
2023-04-28T03:43:40.738Z,4.72
2023-04-28T03:46:07.213Z,4.20
2023-04-28T03:48:33.773Z,4.03
2023-04-28T03:51:00.277Z,5.30
2023-04-28T03:53:26.820Z,4.88
2023-04-28T03:55:53.382Z,11.30
2023-04-28T03:58:19.904Z,4.87
2023-04-28T04:00:46.622Z,4.88
2023-04-28T04:03:13.159Z,4.35
2023-04-28T04:05:41.444Z,4.30
2023-04-28T04:08:07.921Z,4.03
2023-04-28T04:10:34.359Z,6.97
2023-04-28T04:13:03.834Z,2.85
2023-04-28T04:15:30.273Z,4.65
2023-04-28T04:17:56.843Z,16.05
2023-04-28T04:20:23.248Z,9.15
2023-04-28T04:22:49.767Z,7.97
2023-04-28T04:25:16.971Z,8.65
2023-04-28T04:27:43.486Z,4.32
2023-04-28T04:30:10.111Z,5.43
2023-04-28T04:32:36.553Z,3.63
2023-04-28T04:35:03.008Z,11.20
2023-04-28T04:37:29.489Z,9.43
2023-04-28T04:39:55.860Z,5.90
2023-04-28T04:42:24.696Z,6.18
2023-04-28T04:44:51.646Z,14.48
2023-04-28T04:47:19.006Z,11.67
2023-04-28T04:49:45.507Z,8.75
2023-04-28T04:52:11.952Z,7.20
2023-04-28T04:54:38.407Z,8.57
2023-04-28T04:57:05.100Z,4.20
2023-04-28T04:59:31.636Z,7.93
2023-04-28T05:01:58.223Z,12.45
2023-04-28T05:04:24.804Z,12.70
2023-04-28T05:06:51.613Z,18.58
2023-04-28T05:09:18.139Z,14.00
2023-04-28T05:11:45.424Z,8.40
2023-04-28T05:14:12.063Z,11.70
2023-04-28T05:16:39.273Z,9.48
2023-04-28T05:19:05.952Z,10.85
2023-04-28T05:21:32.691Z,7.32
2023-04-28T05:23:59.256Z,6.27
2023-04-28T05:26:26.136Z,5.07
2023-04-28T05:28:52.590Z,5.47
2023-04-28T05:31:19.121Z,6.07
2023-04-28T05:33:45.990Z,4.15
2023-04-28T05:36:13.543Z,5.00
2023-04-28T05:38:40.197Z,5.30
2023-04-28T05:41:06.987Z,8.38
2023-04-28T05:43:33.415Z,16.00
2023-04-28T05:46:01.229Z,8.88
2023-04-28T05:48:27.680Z,8.60
2023-04-28T05:50:54.096Z,7.95
2023-04-28T05:53:20.632Z,17.70
2023-04-28T05:55:47.161Z,6.85
2023-04-28T05:58:13.686Z,13.88
2023-04-28T06:00:40.233Z,7.43
2023-04-28T06:03:08.658Z,5.15
2023-04-28T06:05:35.502Z,6.38
2023-04-28T06:08:03.503Z,5.00
2023-04-28T06:10:29.950Z,6.20
2023-04-28T06:12:56.491Z,5.73
2023-04-28T06:15:22.986Z,18.60
2023-04-28T06:17:49.583Z,7.25
2023-04-28T06:20:16.594Z,11.90
2023-04-28T06:22:43.232Z,12.20
2023-04-28T06:25:09.753Z,17.83
2023-04-28T06:27:51.809Z,9.73
2023-04-28T06:30:22.532Z,8.68
2023-04-28T06:32:49.208Z,10.18
2023-04-28T06:35:16.920Z,8.17
2023-04-28T06:37:43.553Z,8.27
2023-04-28T06:40:11.052Z,10.18
2023-04-28T06:42:37.448Z,8.75
2023-04-28T06:45:04.092Z,6.65
2023-04-28T06:47:30.602Z,8.80
2023-04-28T06:49:57.432Z,12.73
2023-04-28T06:52:33.063Z,10.93
2023-04-28T06:55:07.902Z,9.02
2023-04-28T06:57:34.379Z,7.80
2023-04-28T07:00:00.929Z,6.83
2023-04-28T07:02:27.497Z,7.10
2023-04-28T07:04:56.766Z,6.63
2023-04-28T07:07:23.245Z,8.73
2023-04-28T07:09:49.770Z,14.10
2023-04-28T07:12:16.229Z,15.00
2023-04-28T07:14:42.594Z,11.45
2023-04-28T07:17:09.002Z,11.68
2023-04-28T07:19:35.630Z,11.43
2023-04-28T07:22:02.005Z,9.35
2023-04-28T07:24:28.512Z,10.13
2023-04-28T07:26:55.081Z,13.27
2023-04-28T07:29:21.709Z,12.25
2023-04-28T07:31:48.138Z,10.40
2023-04-28T07:34:14.957Z,10.65
2023-04-28T07:36:41.762Z,9.60
2023-04-28T07:39:08.535Z,9.52
2023-04-28T07:41:38.620Z,9.48
2023-04-28T07:44:06.115Z,11.27
2023-04-28T07:46:32.682Z,13.65
2023-04-28T07:48:59.252Z,11.43
2023-04-28T07:51:26.800Z,9.18
2023-04-28T07:53:53.260Z,10.55
2023-04-28T07:56:19.805Z,10.45
2023-04-28T07:58:46.511Z,10.35
2023-04-28T08:01:13.173Z,10.80
2023-04-28T08:03:39.689Z,11.32
2023-04-28T08:06:07.362Z,8.93
2023-04-28T08:08:34.961Z,13.07
2023-04-28T08:11:01.808Z,9.68
2023-04-28T08:13:28.905Z,10.73
2023-04-28T08:16:00.564Z,15.25
2023-04-28T08:18:28.079Z,11.90
2023-04-28T08:20:55.044Z,16.42
2023-04-28T08:23:21.585Z,10.82
2023-04-28T08:25:49.964Z,11.97
2023-04-28T08:28:16.580Z,10.70
2023-04-28T08:30:43.056Z,11.48
2023-04-28T08:33:09.510Z,15.32
2023-04-28T08:35:35.979Z,12.32
2023-04-28T08:38:02.426Z,10.47
2023-04-28T08:40:31.341Z,10.55
2023-04-28T08:42:58.398Z,12.35
2023-04-28T08:45:27.861Z,11.18
2023-04-28T08:47:56.862Z,14.27
2023-04-28T08:50:23.945Z,11.13
2023-04-28T08:52:52.561Z,15.32
2023-04-28T08:55:19.580Z,10.75
2023-04-28T08:57:49.683Z,13.57
2023-04-28T09:00:16.539Z,12.15
2023-04-28T09:02:43.233Z,11.23
2023-04-28T09:05:14.298Z,12.85
2023-04-28T09:07:41.345Z,14.93
2023-04-28T09:10:24.795Z,13.85
2023-04-28T09:12:54.069Z,12.43
2023-04-28T09:15:34.594Z,13.73
2023-04-28T09:18:04.078Z,13.35
2023-04-28T09:20:32.993Z,10.35
2023-04-28T09:23:17.526Z,14.85
2023-04-28T09:26:03.568Z,13.57
2023-04-28T09:28:34.593Z,14.33
2023-04-28T09:31:01.989Z,18.48
2023-04-28T09:33:28.665Z,16.25
2023-04-28T09:35:55.246Z,20.02
2023-04-28T09:38:22.810Z,15.57
2023-04-28T09:41:09.478Z,12.03
2023-04-28T09:43:36.155Z,15.27
2023-04-28T09:46:05.419Z,13.50
2023-04-28T09:48:36.677Z,13.85
2023-04-28T09:51:05.960Z,14.23
2023-04-28T09:53:33.473Z,13.17
2023-04-28T09:56:01.749Z,14.55
2023-04-28T09:58:29.322Z,11.02
2023-04-28T10:00:58.001Z,15.00
2023-04-28T10:03:30.403Z,16.90
2023-04-28T10:06:00.220Z,14.63
2023-04-28T10:08:27.861Z,11.27
2023-04-28T10:10:55.555Z,11.35
2023-04-28T10:13:23.328Z,10.00
2023-04-28T10:15:51.202Z,9.98
2023-04-28T10:18:18.425Z,9.20
2023-04-28T10:20:51.098Z,9.60
2023-04-28T10:23:51.816Z,10.23
2023-04-28T10:26:20.143Z,10.43
2023-04-28T10:28:48.598Z,8.20
2023-04-28T10:31:17.517Z,7.60
2023-04-28T10:33:44.650Z,8.38
2023-04-28T10:36:11.485Z,8.48
2023-04-28T10:39:12.169Z,8.95
2023-04-28T10:41:38.882Z,7.57
2023-04-28T10:44:30.172Z,7.00
2023-04-28T10:47:04.324Z,7.38
2023-04-28T10:49:58.786Z,7.65
2023-04-28T10:52:40.756Z,7.10
2023-04-28T10:55:27.039Z,7.47
2023-04-28T10:58:15.409Z,6.70
2023-04-28T11:00:43.404Z,5.78
2023-04-28T11:03:10.182Z,5.97
2023-04-28T11:05:36.818Z,7.28
2023-04-28T11:08:18.776Z,6.60
2023-04-28T11:11:10.237Z,7.03
2023-04-28T11:13:36.662Z,5.90
2023-04-28T11:16:06.924Z,6.65
2023-04-28T11:19:05.742Z,6.88
2023-04-28T11:21:32.917Z,5.97
2023-04-28T11:23:59.840Z,10.37
2023-04-28T11:26:27.811Z,6.00
2023-04-28T11:28:56.886Z,6.20
2023-04-28T11:31:25.954Z,5.20
2023-04-28T11:34:03.633Z,8.80
2023-04-28T11:36:32.856Z,6.57
2023-04-28T11:38:59.861Z,6.97
2023-04-28T11:41:26.962Z,6.15
2023-04-28T11:43:53.888Z,9.18
2023-04-28T11:46:22.861Z,6.60
2023-04-28T11:48:49.733Z,9.40
2023-04-28T11:51:33.486Z,7.22
2023-04-28T11:54:00.957Z,9.32
2023-04-28T11:56:28.347Z,6.18
2023-04-28T11:59:06.179Z,8.15
2023-04-28T12:01:34.123Z,10.17
2023-04-28T12:04:00.681Z,9.25
2023-04-28T12:06:28.448Z,10.05
2023-04-28T12:08:54.993Z,6.53
2023-04-28T12:11:22.607Z,7.68
2023-04-28T12:14:08.745Z,7.00
2023-04-28T12:16:43.489Z,5.95
2023-04-28T12:19:11.428Z,6.40
2023-04-28T12:21:39.773Z,5.15
2023-04-28T12:24:22.479Z,7.15
2023-04-28T12:26:49.507Z,4.77
2023-04-28T12:29:35.288Z,5.78
2023-04-28T12:32:01.890Z,3.72
2023-04-28T12:34:29.506Z,3.92
2023-04-28T12:36:55.943Z,3.85
2023-04-28T12:39:23.083Z,4.97
2023-04-28T12:41:49.533Z,5.20
2023-04-28T12:44:16.280Z,3.60
2023-04-28T12:46:42.833Z,3.08
2023-04-28T12:49:09.468Z,3.38
2023-04-28T12:51:38.458Z,3.43
2023-04-28T12:54:05.615Z,2.40
2023-04-28T12:56:33.854Z,3.78
2023-04-28T12:59:02.583Z,2.60
2023-04-28T13:01:29.688Z,4.28
2023-04-28T13:03:56.574Z,2.87
2023-04-28T13:06:23.250Z,4.88
2023-04-28T13:08:49.665Z,2.72
2023-04-28T13:11:22.959Z,2.70
2023-04-28T13:13:49.640Z,3.25
2023-04-28T13:16:16.103Z,3.90
2023-04-28T13:18:42.617Z,3.35
2023-04-28T13:21:09.034Z,2.55
2023-04-28T13:23:35.491Z,2.63
2023-04-28T13:26:01.876Z,2.58
2023-04-28T13:28:28.394Z,2.27
2023-04-28T13:30:54.778Z,2.13
2023-04-28T13:33:21.417Z,2.20
2023-04-28T13:35:47.845Z,1.88
2023-04-28T13:38:14.244Z,2.10
2023-04-28T13:40:42.428Z,2.20
2023-04-28T13:43:08.925Z,2.60
2023-04-28T13:45:35.447Z,2.08
2023-04-28T13:48:03.388Z,3.75
2023-04-28T13:50:29.822Z,1.70
2023-04-28T13:52:56.249Z,2.23
2023-04-28T13:55:28.217Z,2.08
2023-04-28T13:57:55.436Z,2.10
2023-04-28T14:00:22.351Z,1.90
2023-04-28T14:02:50.494Z,1.38
2023-04-28T14:05:17.880Z,1.10
2023-04-28T14:07:44.570Z,1.10
2023-04-28T14:10:11.393Z,1.02
2023-04-28T14:12:38.265Z,1.00
2023-04-28T14:15:06.143Z,0.85
2023-04-28T14:17:34.375Z,1.43
2023-04-28T14:20:04.208Z,1.17
2023-04-28T14:22:30.879Z,1.58
2023-04-28T14:24:57.381Z,1.15
2023-04-28T14:27:23.828Z,1.52
2023-04-28T14:29:50.681Z,1.10
2023-04-28T14:32:20.929Z,2.10
2023-04-28T14:34:49.797Z,1.30
2023-04-28T14:37:17.720Z,1.38
2023-04-28T14:39:44.506Z,2.20
2023-04-28T14:42:12.057Z,1.90
2023-04-28T14:44:38.461Z,2.92
2023-04-28T14:47:05.105Z,4.25
2023-04-28T14:49:31.643Z,3.47
2023-04-28T14:51:59.941Z,4.65
2023-04-28T14:54:26.396Z,3.90
2023-04-28T14:56:52.750Z,4.45
2023-04-28T14:59:19.376Z,6.50
2023-04-28T15:01:46.038Z,9.00
2023-04-28T15:04:12.764Z,6.03
2023-04-28T15:06:39.689Z,8.03
2023-04-28T15:09:06.199Z,7.60
2023-04-28T15:11:32.609Z,7.07
2023-04-28T15:13:59.048Z,6.13
2023-04-28T15:16:25.602Z,8.32
2023-04-28T15:18:52.052Z,7.77
2023-04-28T15:21:18.440Z,6.45
2023-04-28T15:23:44.934Z,9.48
2023-04-28T15:26:11.345Z,6.65
2023-04-28T15:28:38.185Z,8.05
2023-04-28T15:31:04.987Z,7.20
2023-04-28T15:33:31.655Z,10.15
2023-04-28T15:35:58.053Z,9.43
2023-04-28T15:38:24.524Z,9.45
2023-04-28T15:40:50.984Z,7.93
2023-04-28T15:43:17.449Z,7.30
2023-04-28T15:45:46.839Z,8.38
2023-04-28T15:48:13.722Z,9.15
2023-04-28T15:50:40.500Z,7.93
2023-04-28T15:53:07.111Z,8.73
2023-04-28T15:55:33.604Z,7.77
2023-04-28T15:58:01.167Z,8.10
2023-04-28T16:00:27.908Z,12.00
2023-04-28T16:02:54.334Z,11.50
2023-04-28T16:05:20.876Z,9.38
2023-04-28T16:07:47.477Z,8.70
2023-04-28T16:10:16.423Z,8.55
2023-04-28T16:12:43.141Z,11.43
2023-04-28T16:15:12.161Z,11.18
2023-04-28T16:17:39.662Z,10.32
2023-04-28T16:20:07.949Z,11.97
2023-04-28T16:22:35.469Z,11.70
2023-04-28T16:25:03.874Z,11.05
2023-04-28T16:27:31.144Z,9.82
2023-04-28T16:29:57.677Z,10.43
2023-04-28T16:32:24.224Z,7.67
2023-04-28T16:34:51.239Z,9.98
2023-04-28T16:37:17.895Z,8.73
2023-04-28T16:39:44.357Z,12.27
2023-04-28T16:42:10.812Z,11.95
2023-04-28T16:44:37.194Z,11.70
2023-04-28T16:47:04.550Z,9.23
2023-04-28T16:49:31.013Z,12.70
2023-04-28T16:52:01.936Z,10.60
2023-04-28T16:54:28.924Z,12.00
2023-04-28T16:56:55.989Z,12.07
2023-04-28T16:59:22.944Z,8.27
2023-04-28T17:01:49.458Z,8.63
2023-04-28T17:04:17.187Z,7.85
2023-04-28T17:06:44.312Z,9.95
2023-04-28T17:09:11.360Z,8.40
2023-04-28T17:11:37.791Z,8.52
2023-04-28T17:14:05.078Z,8.25
2023-04-28T17:16:32.772Z,4.45
2023-04-28T17:18:59.746Z,4.40
2023-04-28T17:21:28.747Z,3.37
2023-04-28T17:23:57.534Z,5.15
2023-04-28T17:26:25.001Z,4.80
2023-04-28T17:28:51.640Z,4.40
2023-04-28T17:31:18.204Z,3.78
2023-04-28T17:33:44.904Z,2.90
2023-04-28T17:36:11.279Z,3.10
2023-04-28T17:38:38.903Z,4.50
2023-04-28T17:41:05.265Z,2.67
2023-04-28T17:43:31.803Z,3.58
2023-04-28T17:45:58.233Z,4.77
2023-04-28T17:48:24.806Z,5.90
2023-04-28T17:50:51.520Z,3.70
2023-04-28T17:53:17.963Z,4.22
2023-04-28T17:55:44.523Z,6.15
2023-04-28T17:58:11.008Z,7.03
2023-04-28T18:00:37.406Z,6.78
2023-04-28T18:03:04.187Z,6.35
2023-04-28T18:05:31.240Z,6.35
2023-04-28T18:08:03.631Z,9.73
2023-04-28T18:10:31.138Z,7.67
2023-04-28T18:13:01.275Z,7.25
2023-04-28T18:15:28.619Z,11.60
2023-04-28T18:17:55.115Z,13.50
2023-04-28T18:20:21.634Z,10.63
2023-04-28T18:22:48.088Z,10.30
2023-04-28T18:25:16.778Z,10.02
2023-04-28T18:27:43.408Z,12.80
2023-04-28T18:30:10.499Z,11.80
2023-04-28T18:32:37.060Z,12.18
2023-04-28T18:35:03.623Z,12.20
2023-04-28T18:37:30.072Z,11.85
2023-04-28T18:39:57.512Z,7.63
2023-04-28T18:42:24.458Z,8.63
2023-04-28T18:44:58.308Z,10.55
2023-04-28T18:47:25.572Z,12.47
2023-04-28T18:49:52.462Z,13.48
2023-04-28T18:52:18.919Z,13.27
2023-04-28T18:54:45.481Z,12.73
2023-04-28T18:57:12.786Z,11.80
2023-04-28T18:59:39.502Z,19.23
2023-04-28T19:02:06.533Z,15.18
2023-04-28T19:04:33.348Z,18.88
2023-04-28T19:06:59.808Z,13.57
2023-04-28T19:09:26.360Z,16.77
2023-04-28T19:11:53.672Z,16.47
2023-04-28T19:14:20.047Z,14.70
2023-04-28T19:16:46.646Z,16.73
2023-04-28T19:19:13.485Z,18.40
2023-04-28T19:21:44.482Z,18.50
2023-04-28T19:24:11.450Z,20.10
2023-04-28T19:26:38.106Z,20.25
2023-04-28T19:29:04.795Z,19.98
2023-04-28T19:31:31.359Z,18.98
2023-04-28T19:33:58.020Z,17.65
2023-04-28T19:36:25.037Z,19.93
2023-04-28T19:38:51.620Z,21.60
2023-04-28T19:41:18.294Z,19.67
2023-04-28T19:43:45.305Z,21.33
2023-04-28T19:46:11.787Z,24.52
2023-04-28T19:48:38.335Z,22.30
2023-04-28T19:51:04.808Z,24.67
2023-04-28T19:53:31.268Z,27.27
2023-04-28T19:56:00.902Z,26.52
2023-04-28T19:58:27.752Z,24.42
2023-04-28T20:00:54.164Z,26.70
2023-04-28T20:03:20.780Z,28.27
2023-04-28T20:05:47.275Z,26.98
2023-04-28T20:08:13.773Z,28.63
2023-04-28T20:10:40.607Z,26.33
2023-04-28T20:13:07.090Z,32.93
2023-04-28T20:15:33.563Z,27.90
2023-04-28T20:18:00.186Z,28.55
2023-04-28T20:20:26.774Z,32.25
2023-04-28T20:22:53.187Z,33.75
2023-04-28T20:25:19.741Z,39.40
2023-04-28T20:27:46.973Z,33.58
2023-04-28T20:30:14.230Z,37.58
2023-04-28T20:32:40.732Z,32.65
2023-04-28T20:35:07.457Z,38.28
2023-04-28T20:37:34.127Z,38.97
2023-04-28T20:40:00.584Z,33.25
2023-04-28T20:42:27.988Z,36.33
2023-04-28T20:44:54.395Z,37.05
2023-04-28T20:47:20.794Z,32.97
2023-04-28T20:49:47.337Z,32.00
2023-04-28T20:52:13.790Z,37.78
2023-04-28T20:54:40.856Z,43.55
2023-04-28T20:57:09.184Z,38.50
2023-04-28T20:59:36.754Z,43.55
2023-04-28T21:02:03.281Z,41.50
2023-04-28T21:04:29.796Z,37.60
2023-04-28T21:06:56.417Z,44.22
2023-04-28T21:09:25.379Z,49.90
2023-04-28T21:11:52.259Z,44.92
2023-04-28T21:14:18.839Z,40.80
2023-04-28T21:16:45.449Z,41.40
2023-04-28T21:19:11.893Z,41.40
2023-04-28T21:21:38.345Z,38.17
2023-04-28T21:24:09.159Z,34.30
2023-04-28T21:26:36.448Z,30.03
2023-04-28T21:29:03.104Z,34.45
2023-04-28T21:31:30.516Z,33.58
2023-04-28T21:33:57.498Z,32.83
2023-04-28T21:36:23.926Z,28.73
2023-04-28T21:38:50.355Z,26.03
2023-04-28T21:41:16.788Z,25.77
2023-04-28T21:43:43.165Z,23.20
2023-04-28T21:46:09.598Z,26.08
2023-04-28T21:48:37.374Z,21.98
2023-04-28T21:51:04.036Z,24.43
2023-04-28T21:53:30.527Z,24.65
2023-04-28T21:55:56.947Z,21.73
2023-04-28T21:58:24.135Z,24.10
2023-04-28T22:00:51.181Z,23.08
2023-04-28T22:03:18.051Z,24.27
2023-04-28T22:05:45.110Z,22.45
2023-04-28T22:08:12.639Z,25.05
2023-04-28T22:10:40.893Z,23.05
2023-04-28T22:13:07.338Z,22.05
2023-04-28T22:15:34.676Z,21.67
2023-04-28T22:18:01.547Z,19.13
2023-04-28T22:20:28.118Z,18.38
2023-04-28T22:22:54.676Z,18.63
2023-04-28T22:25:21.351Z,20.02
2023-04-28T22:27:47.805Z,15.30
2023-04-28T22:30:15.047Z,17.33
2023-04-28T22:32:44.838Z,20.02
2023-04-28T22:35:14.538Z,14.93
2023-04-28T22:37:41.005Z,19.60
2023-04-28T22:40:08.791Z,17.63
2023-04-28T22:42:36.907Z,20.42
2023-04-28T22:45:04.400Z,18.42
2023-04-28T22:47:30.983Z,18.00
2023-04-28T22:49:57.481Z,16.38
2023-04-28T22:52:24.500Z,16.60
2023-04-28T22:54:51.065Z,17.23
2023-04-28T22:57:17.556Z,15.20
2023-04-28T22:59:44.209Z,20.38
2023-04-28T23:02:13.187Z,17.98
2023-04-28T23:04:40.800Z,16.13
2023-04-28T23:07:07.784Z,18.85
2023-04-28T23:09:36.153Z,17.55
2023-04-28T23:12:06.087Z,21.60
2023-04-28T23:14:33.108Z,17.48
2023-04-28T23:16:59.602Z,17.17
2023-04-28T23:19:26.187Z,18.25
2023-04-28T23:21:52.679Z,18.50
2023-04-28T23:24:19.189Z,23.45
2023-04-28T23:26:45.614Z,18.35
2023-04-28T23:29:12.080Z,24.33
2023-04-28T23:31:41.594Z,23.48
2023-04-28T23:34:09.133Z,21.45
2023-04-28T23:36:36.713Z,23.70
2023-04-28T23:39:03.186Z,24.90
2023-04-28T23:41:29.724Z,24.03
2023-04-28T23:43:57.153Z,26.25
2023-04-28T23:46:24.091Z,26.75
2023-04-28T23:48:50.677Z,31.55
2023-04-28T23:51:17.065Z,27.65
2023-04-28T23:53:43.889Z,29.37
2023-04-28T23:56:10.569Z,26.92
2023-04-28T23:58:37.719Z,30.90
